sensor_id;sensor_type;location;lat;lon;timestamp;P1;durP1;ratioP1;P2;durP2;ratioP2
69321;SDS011;67799;51.974;4.612;2023-02-15T00:02:25;18.45;;;9.40;;
69321;SDS011;67799;51.974;4.612;2023-02-15T00:04:51;18.90;;;10.50;;
69321;SDS011;67799;51.974;4.612;2023-02-15T00:07:18;25.20;;;9.60;;
69321;SDS011;67799;51.974;4.612;2023-02-15T00:09:45;15.00;;;8.60;;
69321;SDS011;67799;51.974;4.612;2023-02-15T00:12:11;21.17;;;11.48;;
69321;SDS011;67799;51.974;4.612;2023-02-15T00:14:37;22.30;;;11.07;;
69321;SDS011;67799;51.974;4.612;2023-02-15T00:17:03;16.97;;;8.90;;
69321;SDS011;67799;51.974;4.612;2023-02-15T00:19:29;15.27;;;8.50;;
69321;SDS011;67799;51.974;4.612;2023-02-15T00:21:55;19.27;;;9.80;;
69321;SDS011;67799;51.974;4.612;2023-02-15T00:24:21;23.77;;;11.17;;
69321;SDS011;67799;51.974;4.612;2023-02-15T00:26:47;24.08;;;10.73;;
69321;SDS011;67799;51.974;4.612;2023-02-15T00:29:14;19.13;;;9.80;;
69321;SDS011;67799;51.974;4.612;2023-02-15T00:31:41;16.03;;;9.00;;
69321;SDS011;67799;51.974;4.612;2023-02-15T00:34:11;13.20;;;9.57;;
69321;SDS011;67799;51.974;4.612;2023-02-15T00:36:40;15.30;;;7.78;;
69321;SDS011;67799;51.974;4.612;2023-02-15T00:39:06;19.83;;;8.88;;
69321;SDS011;67799;51.974;4.612;2023-02-15T00:41:32;15.47;;;9.07;;
69321;SDS011;67799;51.974;4.612;2023-02-15T00:43:58;16.75;;;8.82;;
69321;SDS011;67799;51.974;4.612;2023-02-15T00:46:25;17.30;;;8.90;;
69321;SDS011;67799;51.974;4.612;2023-02-15T00:48:51;22.40;;;8.97;;
69321;SDS011;67799;51.974;4.612;2023-02-15T00:51:16;15.50;;;7.32;;
69321;SDS011;67799;51.974;4.612;2023-02-15T00:53:43;14.65;;;8.13;;
69321;SDS011;67799;51.974;4.612;2023-02-15T00:56:10;17.23;;;9.20;;
69321;SDS011;67799;51.974;4.612;2023-02-15T00:58:36;14.60;;;8.40;;
69321;SDS011;67799;51.974;4.612;2023-02-15T01:01:05;13.68;;;8.18;;
69321;SDS011;67799;51.974;4.612;2023-02-15T01:03:33;16.02;;;8.68;;
69321;SDS011;67799;51.974;4.612;2023-02-15T01:06:01;12.80;;;7.77;;
69321;SDS011;67799;51.974;4.612;2023-02-15T01:08:28;13.85;;;7.95;;
69321;SDS011;67799;51.974;4.612;2023-02-15T01:10:54;17.52;;;8.02;;
69321;SDS011;67799;51.974;4.612;2023-02-15T01:13:20;15.17;;;8.40;;
69321;SDS011;67799;51.974;4.612;2023-02-15T01:15:52;14.07;;;6.97;;
69321;SDS011;67799;51.974;4.612;2023-02-15T01:18:19;12.43;;;8.05;;
69321;SDS011;67799;51.974;4.612;2023-02-15T01:20:48;12.00;;;7.97;;
69321;SDS011;67799;51.974;4.612;2023-02-15T01:23:14;14.70;;;8.23;;
69321;SDS011;67799;51.974;4.612;2023-02-15T01:25:40;14.10;;;7.78;;
69321;SDS011;67799;51.974;4.612;2023-02-15T01:28:06;13.87;;;7.97;;
69321;SDS011;67799;51.974;4.612;2023-02-15T01:30:33;14.45;;;7.45;;
69321;SDS011;67799;51.974;4.612;2023-02-15T01:32:59;15.82;;;9.70;;
69321;SDS011;67799;51.974;4.612;2023-02-15T01:35:30;9.52;;;6.22;;
69321;SDS011;67799;51.974;4.612;2023-02-15T01:37:56;16.07;;;8.70;;
69321;SDS011;67799;51.974;4.612;2023-02-15T01:40:22;13.18;;;5.95;;
69321;SDS011;67799;51.974;4.612;2023-02-15T01:42:52;11.43;;;7.32;;
69321;SDS011;67799;51.974;4.612;2023-02-15T01:45:26;9.63;;;6.63;;
69321;SDS011;67799;51.974;4.612;2023-02-15T01:50:56;12.50;;;6.82;;
69321;SDS011;67799;51.974;4.612;2023-02-15T01:53:33;13.03;;;6.53;;
69321;SDS011;67799;51.974;4.612;2023-02-15T01:56:07;7.28;;;5.63;;
69321;SDS011;67799;51.974;4.612;2023-02-15T01:58:42;15.23;;;7.38;;
69321;SDS011;67799;51.974;4.612;2023-02-15T02:01:08;10.40;;;7.93;;
69321;SDS011;67799;51.974;4.612;2023-02-15T02:06:19;13.13;;;6.63;;
69321;SDS011;67799;51.974;4.612;2023-02-15T02:08:46;9.40;;;6.43;;
69321;SDS011;67799;51.974;4.612;2023-02-15T02:11:13;10.40;;;6.77;;
69321;SDS011;67799;51.974;4.612;2023-02-15T02:13:40;10.63;;;6.20;;
69321;SDS011;67799;51.974;4.612;2023-02-15T02:16:14;10.05;;;6.00;;
69321;SDS011;67799;51.974;4.612;2023-02-15T02:38:25;8.77;;;6.27;;
69321;SDS011;67799;51.974;4.612;2023-02-15T02:41:06;11.20;;;6.05;;
69321;SDS011;67799;51.974;4.612;2023-02-15T02:49:03;8.05;;;5.45;;
69321;SDS011;67799;51.974;4.612;2023-02-15T02:51:30;9.63;;;5.55;;
69321;SDS011;67799;51.974;4.612;2023-02-15T02:53:58;9.35;;;5.85;;
69321;SDS011;67799;51.974;4.612;2023-02-15T02:56:31;10.67;;;6.27;;
69321;SDS011;67799;51.974;4.612;2023-02-15T02:59:13;10.43;;;6.47;;
69321;SDS011;67799;51.974;4.612;2023-02-15T03:01:51;11.27;;;6.20;;
69321;SDS011;67799;51.974;4.612;2023-02-15T03:04:24;10.37;;;6.63;;
69321;SDS011;67799;51.974;4.612;2023-02-15T03:07:04;11.52;;;5.32;;
69321;SDS011;67799;51.974;4.612;2023-02-15T03:09:44;10.15;;;5.72;;
69321;SDS011;67799;51.974;4.612;2023-02-15T03:12:34;8.27;;;5.63;;
69321;SDS011;67799;51.974;4.612;2023-02-15T03:17:39;12.65;;;6.18;;
69321;SDS011;67799;51.974;4.612;2023-02-15T03:20:09;13.10;;;6.78;;
69321;SDS011;67799;51.974;4.612;2023-02-15T03:22:54;9.50;;;5.07;;
69321;SDS011;67799;51.974;4.612;2023-02-15T03:25:28;7.15;;;5.03;;
69321;SDS011;67799;51.974;4.612;2023-02-15T03:27:59;8.90;;;5.07;;
69321;SDS011;67799;51.974;4.612;2023-02-15T03:30:30;8.27;;;5.07;;
69321;SDS011;67799;51.974;4.612;2023-02-15T03:32:58;9.93;;;5.68;;
69321;SDS011;67799;51.974;4.612;2023-02-15T03:35:25;14.30;;;6.60;;
69321;SDS011;67799;51.974;4.612;2023-02-15T03:38:01;11.80;;;6.93;;
69321;SDS011;67799;51.974;4.612;2023-02-15T03:40:37;14.80;;;7.72;;
69321;SDS011;67799;51.974;4.612;2023-02-15T03:43:36;11.75;;;5.70;;
69321;SDS011;67799;51.974;4.612;2023-02-15T03:48:54;8.83;;;5.40;;
69321;SDS011;67799;51.974;4.612;2023-02-15T03:51:26;11.65;;;6.20;;
69321;SDS011;67799;51.974;4.612;2023-02-15T03:54:08;9.73;;;5.50;;
69321;SDS011;67799;51.974;4.612;2023-02-15T03:57:15;7.53;;;4.57;;
69321;SDS011;67799;51.974;4.612;2023-02-15T04:00:01;13.10;;;5.13;;
69321;SDS011;67799;51.974;4.612;2023-02-15T04:05:40;11.50;;;4.30;;
69321;SDS011;67799;51.974;4.612;2023-02-15T04:08:08;6.15;;;4.32;;
69321;SDS011;67799;51.974;4.612;2023-02-15T04:10:34;9.38;;;5.57;;
69321;SDS011;67799;51.974;4.612;2023-02-15T04:13:19;16.95;;;8.05;;
69321;SDS011;67799;51.974;4.612;2023-02-15T04:15:45;14.37;;;7.30;;
69321;SDS011;67799;51.974;4.612;2023-02-15T04:18:33;8.68;;;6.07;;
69321;SDS011;67799;51.974;4.612;2023-02-15T04:21:20;14.65;;;8.10;;
69321;SDS011;67799;51.974;4.612;2023-02-15T04:24:06;14.10;;;6.87;;
69321;SDS011;67799;51.974;4.612;2023-02-15T04:26:51;10.85;;;6.22;;
69321;SDS011;67799;51.974;4.612;2023-02-15T04:29:18;11.65;;;5.30;;
69321;SDS011;67799;51.974;4.612;2023-02-15T04:31:45;16.00;;;6.40;;
69321;SDS011;67799;51.974;4.612;2023-02-15T04:34:11;10.75;;;5.55;;
69321;SDS011;67799;51.974;4.612;2023-02-15T04:36:38;18.58;;;7.45;;
69321;SDS011;67799;51.974;4.612;2023-02-15T04:39:04;11.98;;;6.68;;
69321;SDS011;67799;51.974;4.612;2023-02-15T04:41:31;10.67;;;6.40;;
69321;SDS011;67799;51.974;4.612;2023-02-15T04:43:57;11.32;;;7.18;;
69321;SDS011;67799;51.974;4.612;2023-02-15T04:46:24;12.05;;;6.55;;
69321;SDS011;67799;51.974;4.612;2023-02-15T04:48:50;11.73;;;6.77;;
69321;SDS011;67799;51.974;4.612;2023-02-15T04:51:16;9.77;;;5.55;;
69321;SDS011;67799;51.974;4.612;2023-02-15T04:53:42;14.13;;;8.20;;
69321;SDS011;67799;51.974;4.612;2023-02-15T04:56:08;17.33;;;7.20;;
69321;SDS011;67799;51.974;4.612;2023-02-15T04:58:34;9.20;;;6.28;;
69321;SDS011;67799;51.974;4.612;2023-02-15T05:01:00;12.10;;;7.22;;
69321;SDS011;67799;51.974;4.612;2023-02-15T05:03:26;13.07;;;8.53;;
69321;SDS011;67799;51.974;4.612;2023-02-15T05:05:52;15.07;;;7.15;;
69321;SDS011;67799;51.974;4.612;2023-02-15T05:08:18;12.02;;;7.13;;
69321;SDS011;67799;51.974;4.612;2023-02-15T05:10:44;14.60;;;8.43;;
69321;SDS011;67799;51.974;4.612;2023-02-15T05:13:09;8.90;;;5.35;;
69321;SDS011;67799;51.974;4.612;2023-02-15T05:15:35;14.98;;;6.90;;
69321;SDS011;67799;51.974;4.612;2023-02-15T05:18:01;14.33;;;6.97;;
69321;SDS011;67799;51.974;4.612;2023-02-15T05:20:27;12.77;;;7.82;;
69321;SDS011;67799;51.974;4.612;2023-02-15T05:22:53;9.13;;;6.53;;
69321;SDS011;67799;51.974;4.612;2023-02-15T05:25:19;16.07;;;7.33;;
69321;SDS011;67799;51.974;4.612;2023-02-15T05:28:04;17.02;;;8.25;;
69321;SDS011;67799;51.974;4.612;2023-02-15T05:30:46;11.93;;;7.35;;
69321;SDS011;67799;51.974;4.612;2023-02-15T05:33:16;12.30;;;7.43;;
69321;SDS011;67799;51.974;4.612;2023-02-15T05:35:42;11.30;;;6.28;;
69321;SDS011;67799;51.974;4.612;2023-02-15T05:38:08;10.13;;;5.97;;
69321;SDS011;67799;51.974;4.612;2023-02-15T05:40:34;9.03;;;5.97;;
69321;SDS011;67799;51.974;4.612;2023-02-15T05:43:00;15.52;;;6.65;;
69321;SDS011;67799;51.974;4.612;2023-02-15T05:45:26;9.75;;;6.10;;
69321;SDS011;67799;51.974;4.612;2023-02-15T05:47:52;10.50;;;6.07;;
69321;SDS011;67799;51.974;4.612;2023-02-15T05:50:18;13.37;;;6.70;;
69321;SDS011;67799;51.974;4.612;2023-02-15T05:52:46;10.15;;;6.93;;
69321;SDS011;67799;51.974;4.612;2023-02-15T05:55:11;18.23;;;7.13;;
69321;SDS011;67799;51.974;4.612;2023-02-15T05:57:37;10.15;;;5.68;;
69321;SDS011;67799;51.974;4.612;2023-02-15T06:00:03;18.42;;;7.70;;
69321;SDS011;67799;51.974;4.612;2023-02-15T06:02:37;19.17;;;7.85;;
69321;SDS011;67799;51.974;4.612;2023-02-15T06:05:04;15.63;;;8.13;;
69321;SDS011;67799;51.974;4.612;2023-02-15T06:07:31;7.40;;;5.95;;
69321;SDS011;67799;51.974;4.612;2023-02-15T06:09:57;12.85;;;6.00;;
69321;SDS011;67799;51.974;4.612;2023-02-15T06:12:23;13.90;;;7.73;;
69321;SDS011;67799;51.974;4.612;2023-02-15T06:14:49;13.60;;;5.53;;
69321;SDS011;67799;51.974;4.612;2023-02-15T06:17:15;15.40;;;5.30;;
69321;SDS011;67799;51.974;4.612;2023-02-15T06:19:42;14.87;;;6.53;;
69321;SDS011;67799;51.974;4.612;2023-02-15T06:22:08;13.05;;;6.57;;
69321;SDS011;67799;51.974;4.612;2023-02-15T06:24:34;11.00;;;8.15;;
69321;SDS011;67799;51.974;4.612;2023-02-15T06:27:00;9.77;;;6.90;;
69321;SDS011;67799;51.974;4.612;2023-02-15T06:29:26;11.48;;;5.20;;
69321;SDS011;67799;51.974;4.612;2023-02-15T06:31:51;9.27;;;5.68;;
69321;SDS011;67799;51.974;4.612;2023-02-15T06:34:18;13.93;;;6.50;;
69321;SDS011;67799;51.974;4.612;2023-02-15T06:36:43;12.80;;;7.63;;
69321;SDS011;67799;51.974;4.612;2023-02-15T06:39:09;14.52;;;6.82;;
69321;SDS011;67799;51.974;4.612;2023-02-15T06:41:35;10.80;;;5.77;;
69321;SDS011;67799;51.974;4.612;2023-02-15T06:44:01;8.70;;;5.70;;
69321;SDS011;67799;51.974;4.612;2023-02-15T06:46:27;10.80;;;5.35;;
69321;SDS011;67799;51.974;4.612;2023-02-15T06:48:53;13.20;;;5.87;;
69321;SDS011;67799;51.974;4.612;2023-02-15T06:51:19;12.65;;;6.78;;
69321;SDS011;67799;51.974;4.612;2023-02-15T06:53:45;10.57;;;6.60;;
69321;SDS011;67799;51.974;4.612;2023-02-15T06:56:11;10.85;;;7.22;;
69321;SDS011;67799;51.974;4.612;2023-02-15T06:58:37;9.63;;;5.60;;
69321;SDS011;67799;51.974;4.612;2023-02-15T07:01:04;9.90;;;6.20;;
69321;SDS011;67799;51.974;4.612;2023-02-15T07:03:31;12.32;;;6.50;;
69321;SDS011;67799;51.974;4.612;2023-02-15T07:05:58;11.27;;;6.80;;
69321;SDS011;67799;51.974;4.612;2023-02-15T07:08:25;9.27;;;6.63;;
69321;SDS011;67799;51.974;4.612;2023-02-15T07:10:52;12.23;;;7.27;;
69321;SDS011;67799;51.974;4.612;2023-02-15T07:13:20;16.38;;;6.95;;
69321;SDS011;67799;51.974;4.612;2023-02-15T07:15:46;13.90;;;7.85;;
69321;SDS011;67799;51.974;4.612;2023-02-15T07:18:13;9.57;;;5.50;;
69321;SDS011;67799;51.974;4.612;2023-02-15T07:20:39;17.08;;;8.13;;
69321;SDS011;67799;51.974;4.612;2023-02-15T07:23:06;11.35;;;7.53;;
69321;SDS011;67799;51.974;4.612;2023-02-15T07:25:33;10.70;;;6.83;;
69321;SDS011;67799;51.974;4.612;2023-02-15T07:28:00;10.35;;;6.55;;
69321;SDS011;67799;51.974;4.612;2023-02-15T07:30:27;11.40;;;6.80;;
69321;SDS011;67799;51.974;4.612;2023-02-15T07:32:55;13.75;;;7.45;;
69321;SDS011;67799;51.974;4.612;2023-02-15T07:35:47;14.93;;;7.20;;
69321;SDS011;67799;51.974;4.612;2023-02-15T07:38:17;14.70;;;8.98;;
69321;SDS011;67799;51.974;4.612;2023-02-15T07:40:46;11.23;;;6.57;;
69321;SDS011;67799;51.974;4.612;2023-02-15T07:43:13;12.27;;;7.37;;
69321;SDS011;67799;51.974;4.612;2023-02-15T07:45:39;15.93;;;9.10;;
69321;SDS011;67799;51.974;4.612;2023-02-15T07:48:05;16.00;;;8.07;;
69321;SDS011;67799;51.974;4.612;2023-02-15T07:50:33;14.23;;;7.97;;
69321;SDS011;67799;51.974;4.612;2023-02-15T07:53:00;14.73;;;8.07;;
69321;SDS011;67799;51.974;4.612;2023-02-15T07:55:27;14.02;;;7.53;;
69321;SDS011;67799;51.974;4.612;2023-02-15T07:57:53;16.08;;;10.02;;
69321;SDS011;67799;51.974;4.612;2023-02-15T08:00:20;17.17;;;8.97;;
69321;SDS011;67799;51.974;4.612;2023-02-15T08:02:50;16.65;;;8.88;;
69321;SDS011;67799;51.974;4.612;2023-02-15T08:05:38;14.95;;;8.20;;
69321;SDS011;67799;51.974;4.612;2023-02-15T08:08:06;16.90;;;7.77;;
69321;SDS011;67799;51.974;4.612;2023-02-15T08:10:33;14.95;;;7.85;;
69321;SDS011;67799;51.974;4.612;2023-02-15T08:13:19;18.42;;;8.85;;
69321;SDS011;67799;51.974;4.612;2023-02-15T08:15:51;16.73;;;10.73;;
69321;SDS011;67799;51.974;4.612;2023-02-15T08:18:17;19.00;;;9.65;;
69321;SDS011;67799;51.974;4.612;2023-02-15T08:20:48;18.67;;;8.98;;
69321;SDS011;67799;51.974;4.612;2023-02-15T08:23:14;20.38;;;8.95;;
69321;SDS011;67799;51.974;4.612;2023-02-15T08:25:40;11.70;;;7.50;;
69321;SDS011;67799;51.974;4.612;2023-02-15T08:28:06;16.58;;;7.45;;
69321;SDS011;67799;51.974;4.612;2023-02-15T08:30:32;14.90;;;7.33;;
69321;SDS011;67799;51.974;4.612;2023-02-15T08:32:57;11.30;;;5.35;;
69321;SDS011;67799;51.974;4.612;2023-02-15T08:35:24;12.70;;;6.03;;
69321;SDS011;67799;51.974;4.612;2023-02-15T08:37:51;19.03;;;6.90;;
69321;SDS011;67799;51.974;4.612;2023-02-15T08:40:17;17.55;;;6.75;;
69321;SDS011;67799;51.974;4.612;2023-02-15T08:42:42;10.23;;;5.47;;
69321;SDS011;67799;51.974;4.612;2023-02-15T08:45:08;11.20;;;5.35;;
69321;SDS011;67799;51.974;4.612;2023-02-15T08:47:34;8.63;;;4.87;;
69321;SDS011;67799;51.974;4.612;2023-02-15T08:50:00;12.48;;;5.47;;
69321;SDS011;67799;51.974;4.612;2023-02-15T08:52:26;11.93;;;6.22;;
69321;SDS011;67799;51.974;4.612;2023-02-15T08:54:52;6.30;;;4.30;;
69321;SDS011;67799;51.974;4.612;2023-02-15T08:57:18;6.97;;;4.60;;
69321;SDS011;67799;51.974;4.612;2023-02-15T08:59:43;12.70;;;7.05;;
69321;SDS011;67799;51.974;4.612;2023-02-15T09:02:09;15.50;;;7.87;;
69321;SDS011;67799;51.974;4.612;2023-02-15T09:04:35;15.55;;;7.47;;
69321;SDS011;67799;51.974;4.612;2023-02-15T09:07:01;8.95;;;5.90;;
69321;SDS011;67799;51.974;4.612;2023-02-15T09:09:29;21.33;;;9.17;;
69321;SDS011;67799;51.974;4.612;2023-02-15T09:11:57;13.93;;;6.57;;
69321;SDS011;67799;51.974;4.612;2023-02-15T09:14:22;11.32;;;6.97;;
69321;SDS011;67799;51.974;4.612;2023-02-15T09:16:51;10.83;;;6.97;;
69321;SDS011;67799;51.974;4.612;2023-02-15T09:19:18;7.85;;;4.70;;
69321;SDS011;67799;51.974;4.612;2023-02-15T09:21:45;7.55;;;4.47;;
69321;SDS011;67799;51.974;4.612;2023-02-15T09:24:12;8.37;;;4.70;;
69321;SDS011;67799;51.974;4.612;2023-02-15T09:26:42;6.90;;;4.68;;
69321;SDS011;67799;51.974;4.612;2023-02-15T09:29:09;7.63;;;5.07;;
69321;SDS011;67799;51.974;4.612;2023-02-15T09:31:37;9.73;;;4.87;;
69321;SDS011;67799;51.974;4.612;2023-02-15T09:34:06;10.63;;;5.00;;
69321;SDS011;67799;51.974;4.612;2023-02-15T09:36:33;10.82;;;5.38;;
69321;SDS011;67799;51.974;4.612;2023-02-15T10:16:53;8.10;;;4.93;;
69321;SDS011;67799;51.974;4.612;2023-02-15T10:22:31;11.75;;;5.75;;
69321;SDS011;67799;51.974;4.612;2023-02-15T10:28:16;20.33;;;9.32;;
69321;SDS011;67799;51.974;4.612;2023-02-15T10:30:46;16.80;;;6.38;;
69321;SDS011;67799;51.974;4.612;2023-02-15T10:38:57;9.40;;;5.80;;
69321;SDS011;67799;51.974;4.612;2023-02-15T10:41:42;14.88;;;6.88;;
69321;SDS011;67799;51.974;4.612;2023-02-15T10:54:27;20.05;;;9.82;;
69321;SDS011;67799;51.974;4.612;2023-02-15T10:59:49;19.13;;;7.53;;
69321;SDS011;67799;51.974;4.612;2023-02-15T11:08:05;14.30;;;7.40;;
69321;SDS011;67799;51.974;4.612;2023-02-15T11:13:17;10.55;;;6.25;;
69321;SDS011;67799;51.974;4.612;2023-02-15T11:18:27;20.13;;;9.87;;
69321;SDS011;67799;51.974;4.612;2023-02-15T11:21:13;14.05;;;8.27;;
69321;SDS011;67799;51.974;4.612;2023-02-15T11:23:48;14.85;;;8.25;;
69321;SDS011;67799;51.974;4.612;2023-02-15T11:26:18;17.67;;;8.70;;
69321;SDS011;67799;51.974;4.612;2023-02-15T11:29:10;13.77;;;7.32;;
69321;SDS011;67799;51.974;4.612;2023-02-15T11:31:59;12.25;;;6.07;;
69321;SDS011;67799;51.974;4.612;2023-02-15T11:37:40;16.60;;;9.47;;
69321;SDS011;67799;51.974;4.612;2023-02-15T11:40:32;13.63;;;7.97;;
69321;SDS011;67799;51.974;4.612;2023-02-15T11:43:17;14.45;;;5.68;;
69321;SDS011;67799;51.974;4.612;2023-02-15T11:45:50;11.17;;;5.80;;
69321;SDS011;67799;51.974;4.612;2023-02-15T11:48:16;13.25;;;6.75;;
69321;SDS011;67799;51.974;4.612;2023-02-15T11:50:43;11.73;;;5.88;;
69321;SDS011;67799;51.974;4.612;2023-02-15T11:53:17;15.77;;;7.83;;
69321;SDS011;67799;51.974;4.612;2023-02-15T11:55:53;12.77;;;6.30;;
69321;SDS011;67799;51.974;4.612;2023-02-15T12:01:10;10.57;;;5.65;;
69321;SDS011;67799;51.974;4.612;2023-02-15T12:06:41;10.20;;;5.72;;
69321;SDS011;67799;51.974;4.612;2023-02-15T12:14:54;10.40;;;5.72;;
69321;SDS011;67799;51.974;4.612;2023-02-15T12:17:27;10.85;;;5.63;;
69321;SDS011;67799;51.974;4.612;2023-02-15T12:19:56;14.97;;;7.47;;
69321;SDS011;67799;51.974;4.612;2023-02-15T12:22:27;7.95;;;4.72;;
69321;SDS011;67799;51.974;4.612;2023-02-15T12:25:02;11.75;;;6.28;;
69321;SDS011;67799;51.974;4.612;2023-02-15T12:27:44;11.48;;;5.88;;
69321;SDS011;67799;51.974;4.612;2023-02-15T12:30:18;13.43;;;6.50;;
69321;SDS011;67799;51.974;4.612;2023-02-15T12:32:53;10.57;;;5.60;;
69321;SDS011;67799;51.974;4.612;2023-02-15T12:37:57;9.80;;;5.63;;
69321;SDS011;67799;51.974;4.612;2023-02-15T12:40:25;8.32;;;4.97;;
69321;SDS011;67799;51.974;4.612;2023-02-15T12:42:53;9.93;;;4.90;;
69321;SDS011;67799;51.974;4.612;2023-02-15T12:45:24;7.73;;;4.40;;
69321;SDS011;67799;51.974;4.612;2023-02-15T12:48:08;14.00;;;7.30;;
69321;SDS011;67799;51.974;4.612;2023-02-15T12:50:37;12.80;;;5.93;;
69321;SDS011;67799;51.974;4.612;2023-02-15T12:53:06;10.68;;;5.35;;
69321;SDS011;67799;51.974;4.612;2023-02-15T12:55:56;12.10;;;5.87;;
69321;SDS011;67799;51.974;4.612;2023-02-15T12:58:24;12.55;;;6.05;;
69321;SDS011;67799;51.974;4.612;2023-02-15T13:06:27;12.57;;;5.75;;
69321;SDS011;67799;51.974;4.612;2023-02-15T13:08:58;9.07;;;4.80;;
69321;SDS011;67799;51.974;4.612;2023-02-15T13:11:40;8.13;;;4.70;;
69321;SDS011;67799;51.974;4.612;2023-02-15T13:16:48;12.55;;;6.72;;
69321;SDS011;67799;51.974;4.612;2023-02-15T13:19:17;9.35;;;5.03;;
69321;SDS011;67799;51.974;4.612;2023-02-15T13:21:54;10.93;;;5.57;;
69321;SDS011;67799;51.974;4.612;2023-02-15T13:24:26;11.63;;;6.32;;
69321;SDS011;67799;51.974;4.612;2023-02-15T13:26:56;11.82;;;6.40;;
69321;SDS011;67799;51.974;4.612;2023-02-15T13:31:51;6.80;;;4.20;;
69321;SDS011;67799;51.974;4.612;2023-02-15T13:34:31;10.13;;;4.22;;
69321;SDS011;67799;51.974;4.612;2023-02-15T13:37:06;7.83;;;4.37;;
69321;SDS011;67799;51.974;4.612;2023-02-15T13:40:00;10.23;;;5.05;;
69321;SDS011;67799;51.974;4.612;2023-02-15T13:42:50;8.70;;;4.82;;
69321;SDS011;67799;51.974;4.612;2023-02-15T13:45:39;10.32;;;5.45;;
69321;SDS011;67799;51.974;4.612;2023-02-15T13:57:01;15.00;;;6.40;;
69321;SDS011;67799;51.974;4.612;2023-02-15T14:07:56;8.35;;;5.18;;
69321;SDS011;67799;51.974;4.612;2023-02-15T14:15:42;8.30;;;4.70;;
69321;SDS011;67799;51.974;4.612;2023-02-15T14:31:45;16.03;;;7.20;;
69321;SDS011;67799;51.974;4.612;2023-02-15T14:34:24;11.75;;;5.25;;
69321;SDS011;67799;51.974;4.612;2023-02-15T14:36:58;11.20;;;5.47;;
69321;SDS011;67799;51.974;4.612;2023-02-15T14:39:33;15.55;;;6.18;;
69321;SDS011;67799;51.974;4.612;2023-02-15T14:45:35;13.55;;;5.30;;
69321;SDS011;67799;51.974;4.612;2023-02-15T14:48:20;15.02;;;6.20;;
69321;SDS011;67799;51.974;4.612;2023-02-15T14:50:57;9.77;;;5.30;;
69321;SDS011;67799;51.974;4.612;2023-02-15T14:53:36;7.57;;;5.18;;
69321;SDS011;67799;51.974;4.612;2023-02-15T14:58:38;10.97;;;5.83;;
69321;SDS011;67799;51.974;4.612;2023-02-15T15:01:25;18.08;;;7.15;;
69321;SDS011;67799;51.974;4.612;2023-02-15T15:03:52;14.93;;;7.32;;
69321;SDS011;67799;51.974;4.612;2023-02-15T15:06:28;9.93;;;5.88;;
69321;SDS011;67799;51.974;4.612;2023-02-15T15:08:58;9.13;;;5.17;;
69321;SDS011;67799;51.974;4.612;2023-02-15T15:11:39;12.27;;;6.38;;
69321;SDS011;67799;51.974;4.612;2023-02-15T15:14:13;14.55;;;5.70;;
69321;SDS011;67799;51.974;4.612;2023-02-15T15:16:59;18.17;;;7.50;;
69321;SDS011;67799;51.974;4.612;2023-02-15T15:22:18;13.50;;;6.72;;
69321;SDS011;67799;51.974;4.612;2023-02-15T15:24:54;18.07;;;8.07;;
69321;SDS011;67799;51.974;4.612;2023-02-15T15:46:37;12.43;;;7.40;;
69321;SDS011;67799;51.974;4.612;2023-02-15T15:49:37;18.15;;;8.95;;
69321;SDS011;67799;51.974;4.612;2023-02-15T15:52:18;17.80;;;7.63;;
69321;SDS011;67799;51.974;4.612;2023-02-15T15:54:46;18.88;;;8.35;;
69321;SDS011;67799;51.974;4.612;2023-02-15T15:57:28;19.02;;;8.77;;
69321;SDS011;67799;51.974;4.612;2023-02-15T16:00:00;23.50;;;11.37;;
69321;SDS011;67799;51.974;4.612;2023-02-15T16:02:48;17.10;;;8.50;;
69321;SDS011;67799;51.974;4.612;2023-02-15T16:05:15;17.08;;;8.48;;
69321;SDS011;67799;51.974;4.612;2023-02-15T16:07:41;21.00;;;8.93;;
69321;SDS011;67799;51.974;4.612;2023-02-15T16:10:16;16.77;;;8.50;;
69321;SDS011;67799;51.974;4.612;2023-02-15T16:12:47;20.52;;;9.43;;
69321;SDS011;67799;51.974;4.612;2023-02-15T16:17:43;14.68;;;7.97;;
69321;SDS011;67799;51.974;4.612;2023-02-15T16:20:48;20.58;;;8.65;;
69321;SDS011;67799;51.974;4.612;2023-02-15T16:28:36;15.35;;;9.35;;
69321;SDS011;67799;51.974;4.612;2023-02-15T16:31:20;12.88;;;7.25;;
69321;SDS011;67799;51.974;4.612;2023-02-15T16:33:47;11.60;;;6.73;;
69321;SDS011;67799;51.974;4.612;2023-02-15T16:36:24;15.63;;;8.75;;
69321;SDS011;67799;51.974;4.612;2023-02-15T16:41:27;17.53;;;7.47;;
69321;SDS011;67799;51.974;4.612;2023-02-15T16:43:55;17.23;;;8.00;;
69321;SDS011;67799;51.974;4.612;2023-02-15T16:46:33;13.88;;;7.13;;
69321;SDS011;67799;51.974;4.612;2023-02-15T16:49:18;22.43;;;8.30;;
69321;SDS011;67799;51.974;4.612;2023-02-15T16:51:55;11.23;;;6.85;;
69321;SDS011;67799;51.974;4.612;2023-02-15T16:54:24;13.65;;;7.18;;
69321;SDS011;67799;51.974;4.612;2023-02-15T16:56:52;13.18;;;6.65;;
69321;SDS011;67799;51.974;4.612;2023-02-15T17:01:56;18.80;;;9.45;;
69321;SDS011;67799;51.974;4.612;2023-02-15T17:07:04;19.40;;;8.90;;
69321;SDS011;67799;51.974;4.612;2023-02-15T17:09:37;14.13;;;7.65;;
69321;SDS011;67799;51.974;4.612;2023-02-15T17:20:37;17.85;;;7.40;;
69321;SDS011;67799;51.974;4.612;2023-02-15T17:23:07;12.63;;;7.07;;
69321;SDS011;67799;51.974;4.612;2023-02-15T17:26:14;19.80;;;9.10;;
69321;SDS011;67799;51.974;4.612;2023-02-15T17:28:49;26.08;;;8.77;;
69321;SDS011;67799;51.974;4.612;2023-02-15T17:31:28;17.45;;;9.10;;
69321;SDS011;67799;51.974;4.612;2023-02-15T17:33:57;14.20;;;7.03;;
69321;SDS011;67799;51.974;4.612;2023-02-15T17:36:25;14.10;;;7.65;;
69321;SDS011;67799;51.974;4.612;2023-02-15T17:41:23;11.43;;;6.67;;
69321;SDS011;67799;51.974;4.612;2023-02-15T17:43:53;21.02;;;8.65;;
69321;SDS011;67799;51.974;4.612;2023-02-15T17:46:20;18.40;;;9.48;;
69321;SDS011;67799;51.974;4.612;2023-02-15T17:48:50;16.83;;;7.70;;
69321;SDS011;67799;51.974;4.612;2023-02-15T17:51:19;15.97;;;7.77;;
69321;SDS011;67799;51.974;4.612;2023-02-15T17:53:45;12.70;;;7.00;;
69321;SDS011;67799;51.974;4.612;2023-02-15T17:56:31;19.67;;;9.82;;
69321;SDS011;67799;51.974;4.612;2023-02-15T17:58:58;11.53;;;7.03;;
69321;SDS011;67799;51.974;4.612;2023-02-15T18:01:24;14.60;;;8.05;;
69321;SDS011;67799;51.974;4.612;2023-02-15T18:04:13;16.80;;;8.05;;
69321;SDS011;67799;51.974;4.612;2023-02-15T18:06:58;16.20;;;7.70;;
69321;SDS011;67799;51.974;4.612;2023-02-15T18:09:44;15.15;;;8.35;;
69321;SDS011;67799;51.974;4.612;2023-02-15T18:12:29;15.18;;;8.30;;
69321;SDS011;67799;51.974;4.612;2023-02-15T18:14:57;13.00;;;8.35;;
69321;SDS011;67799;51.974;4.612;2023-02-15T18:17:29;16.97;;;8.00;;
69321;SDS011;67799;51.974;4.612;2023-02-15T18:20:29;14.32;;;8.02;;
69321;SDS011;67799;51.974;4.612;2023-02-15T18:22:55;18.70;;;7.20;;
69321;SDS011;67799;51.974;4.612;2023-02-15T18:25:23;18.93;;;7.23;;
69321;SDS011;67799;51.974;4.612;2023-02-15T18:27:49;14.82;;;7.97;;
69321;SDS011;67799;51.974;4.612;2023-02-15T18:30:20;16.55;;;8.27;;
69321;SDS011;67799;51.974;4.612;2023-02-15T18:32:48;17.00;;;9.57;;
69321;SDS011;67799;51.974;4.612;2023-02-15T18:35:17;15.20;;;7.80;;
69321;SDS011;67799;51.974;4.612;2023-02-15T18:37:45;12.15;;;7.07;;
69321;SDS011;67799;51.974;4.612;2023-02-15T18:40:15;15.70;;;7.18;;
69321;SDS011;67799;51.974;4.612;2023-02-15T18:42:43;11.73;;;7.70;;
69321;SDS011;67799;51.974;4.612;2023-02-15T18:47:39;16.73;;;8.50;;
69321;SDS011;67799;51.974;4.612;2023-02-15T18:50:05;11.77;;;7.30;;
69321;SDS011;67799;51.974;4.612;2023-02-15T18:52:32;20.92;;;7.35;;
69321;SDS011;67799;51.974;4.612;2023-02-15T18:55:02;13.85;;;7.95;;